sensor_id;sensor_type;location;lat;lon;timestamp;P1;durP1;ratioP1;P2;durP2;ratioP2
49193;SDS011;35029;50.804;12.866;2022-12-24T00:02:21;5.82;;;2.03;;
49193;SDS011;35029;50.804;12.866;2022-12-24T00:04:47;4.78;;;1.48;;
49193;SDS011;35029;50.804;12.866;2022-12-24T00:07:13;7.45;;;1.83;;
49193;SDS011;35029;50.804;12.866;2022-12-24T00:09:39;4.07;;;1.20;;
49193;SDS011;35029;50.804;12.866;2022-12-24T00:12:04;3.15;;;1.52;;
49193;SDS011;35029;50.804;12.866;2022-12-24T00:14:30;3.92;;;1.48;;
49193;SDS011;35029;50.804;12.866;2022-12-24T00:16:56;4.85;;;1.35;;
49193;SDS011;35029;50.804;12.866;2022-12-24T00:19:21;5.38;;;1.50;;
49193;SDS011;35029;50.804;12.866;2022-12-24T00:21:47;5.38;;;1.75;;
49193;SDS011;35029;50.804;12.866;2022-12-24T00:24:12;4.10;;;1.40;;
49193;SDS011;35029;50.804;12.866;2022-12-24T00:26:39;8.95;;;1.98;;
49193;SDS011;35029;50.804;12.866;2022-12-24T00:29:04;4.47;;;1.30;;
49193;SDS011;35029;50.804;12.866;2022-12-24T00:31:30;5.32;;;1.27;;
49193;SDS011;35029;50.804;12.866;2022-12-24T00:33:56;5.75;;;1.67;;
49193;SDS011;35029;50.804;12.866;2022-12-24T00:36:21;7.95;;;2.10;;
49193;SDS011;35029;50.804;12.866;2022-12-24T00:38:47;7.40;;;1.52;;
49193;SDS011;35029;50.804;12.866;2022-12-24T00:41:13;5.43;;;1.40;;
49193;SDS011;35029;50.804;12.866;2022-12-24T00:43:54;7.50;;;1.77;;
49193;SDS011;35029;50.804;12.866;2022-12-24T00:46:23;3.05;;;1.20;;
49193;SDS011;35029;50.804;12.866;2022-12-24T00:48:49;7.63;;;2.33;;
49193;SDS011;35029;50.804;12.866;2022-12-24T00:51:15;5.22;;;1.35;;
49193;SDS011;35029;50.804;12.866;2022-12-24T00:53:41;5.28;;;1.50;;
49193;SDS011;35029;50.804;12.866;2022-12-24T00:56:07;5.25;;;1.38;;
49193;SDS011;35029;50.804;12.866;2022-12-24T00:58:33;3.60;;;1.40;;
49193;SDS011;35029;50.804;12.866;2022-12-24T01:00:59;5.65;;;1.50;;
49193;SDS011;35029;50.804;12.866;2022-12-24T01:03:25;6.57;;;1.77;;
49193;SDS011;35029;50.804;12.866;2022-12-24T01:06:06;6.32;;;1.52;;
49193;SDS011;35029;50.804;12.866;2022-12-24T01:08:40;10.15;;;2.33;;
49193;SDS011;35029;50.804;12.866;2022-12-24T01:11:06;3.75;;;1.30;;
49193;SDS011;35029;50.804;12.866;2022-12-24T01:13:33;5.07;;;1.40;;
49193;SDS011;35029;50.804;12.866;2022-12-24T01:15:59;6.22;;;1.60;;
49193;SDS011;35029;50.804;12.866;2022-12-24T01:18:25;6.43;;;1.50;;
49193;SDS011;35029;50.804;12.866;2022-12-24T01:20:58;5.43;;;1.63;;
49193;SDS011;35029;50.804;12.866;2022-12-24T01:23:25;5.07;;;1.45;;
49193;SDS011;35029;50.804;12.866;2022-12-24T01:25:53;8.05;;;1.73;;
49193;SDS011;35029;50.804;12.866;2022-12-24T01:28:20;4.43;;;1.38;;
49193;SDS011;35029;50.804;12.866;2022-12-24T01:30:47;4.63;;;1.63;;
49193;SDS011;35029;50.804;12.866;2022-12-24T01:33:13;6.35;;;1.77;;
49193;SDS011;35029;50.804;12.866;2022-12-24T01:35:40;3.25;;;1.48;;
49193;SDS011;35029;50.804;12.866;2022-12-24T01:38:07;7.43;;;1.85;;
49193;SDS011;35029;50.804;12.866;2022-12-24T01:40:33;6.72;;;1.52;;
49193;SDS011;35029;50.804;12.866;2022-12-24T01:43:18;7.20;;;1.70;;
49193;SDS011;35029;50.804;12.866;2022-12-24T01:51:29;6.30;;;1.75;;
49193;SDS011;35029;50.804;12.866;2022-12-24T01:53:51;4.15;;;1.45;;
49193;SDS011;35029;50.804;12.866;2022-12-24T01:56:21;4.22;;;1.23;;
49193;SDS011;35029;50.804;12.866;2022-12-24T01:58:49;4.93;;;1.75;;
49193;SDS011;35029;50.804;12.866;2022-12-24T02:01:17;5.47;;;1.67;;
49193;SDS011;35029;50.804;12.866;2022-12-24T02:03:43;6.75;;;1.55;;
49193;SDS011;35029;50.804;12.866;2022-12-24T02:06:08;8.15;;;1.83;;
49193;SDS011;35029;50.804;12.866;2022-12-24T02:08:39;6.95;;;1.67;;
49193;SDS011;35029;50.804;12.866;2022-12-24T02:11:23;3.00;;;1.70;;
49193;SDS011;35029;50.804;12.866;2022-12-24T02:13:53;9.30;;;1.85;;
49193;SDS011;35029;50.804;12.866;2022-12-24T02:19:26;7.97;;;1.73;;
49193;SDS011;35029;50.804;12.866;2022-12-24T02:32:32;4.25;;;1.35;;
49193;SDS011;35029;50.804;12.866;2022-12-24T02:37:44;6.82;;;1.70;;
49193;SDS011;35029;50.804;12.866;2022-12-24T02:42:50;8.25;;;1.73;;
49193;SDS011;35029;50.804;12.866;2022-12-24T02:45:30;4.65;;;1.73;;
49193;SDS011;35029;50.804;12.866;2022-12-24T02:48:09;4.38;;;1.00;;
49193;SDS011;35029;50.804;12.866;2022-12-24T02:50:38;5.55;;;1.70;;
49193;SDS011;35029;50.804;12.866;2022-12-24T02:53:04;6.18;;;1.58;;
49193;SDS011;35029;50.804;12.866;2022-12-24T02:55:38;5.15;;;1.70;;
49193;SDS011;35029;50.804;12.866;2022-12-24T03:07:48;8.80;;;2.25;;
49193;SDS011;35029;50.804;12.866;2022-12-24T03:13:16;6.25;;;1.92;;
49193;SDS011;35029;50.804;12.866;2022-12-24T03:15:44;5.35;;;1.50;;
49193;SDS011;35029;50.804;12.866;2022-12-24T03:18:11;5.43;;;1.65;;
49193;SDS011;35029;50.804;12.866;2022-12-24T03:20:42;5.60;;;1.30;;
49193;SDS011;35029;50.804;12.866;2022-12-24T03:23:10;7.63;;;1.65;;
49193;SDS011;35029;50.804;12.866;2022-12-24T03:25:38;7.15;;;2.05;;
49193;SDS011;35029;50.804;12.866;2022-12-24T03:28:06;8.70;;;1.80;;
49193;SDS011;35029;50.804;12.866;2022-12-24T03:30:34;6.88;;;1.73;;
49193;SDS011;35029;50.804;12.866;2022-12-24T03:33:03;10.82;;;2.35;;
49193;SDS011;35029;50.804;12.866;2022-12-24T03:35:28;11.27;;;2.53;;
49193;SDS011;35029;50.804;12.866;2022-12-24T03:37:54;12.13;;;2.40;;
49193;SDS011;35029;50.804;12.866;2022-12-24T03:40:20;9.50;;;2.25;;
49193;SDS011;35029;50.804;12.866;2022-12-24T03:42:46;10.73;;;2.13;;
49193;SDS011;35029;50.804;12.866;2022-12-24T03:45:11;12.55;;;2.65;;
49193;SDS011;35029;50.804;12.866;2022-12-24T03:47:37;7.72;;;1.70;;
49193;SDS011;35029;50.804;12.866;2022-12-24T03:50:03;4.63;;;1.85;;
49193;SDS011;35029;50.804;12.866;2022-12-24T03:52:30;6.75;;;1.85;;
49193;SDS011;35029;50.804;12.866;2022-12-24T03:54:56;10.65;;;2.17;;
49193;SDS011;35029;50.804;12.866;2022-12-24T03:57:22;8.05;;;1.80;;
49193;SDS011;35029;50.804;12.866;2022-12-24T03:59:48;8.13;;;2.00;;
49193;SDS011;35029;50.804;12.866;2022-12-24T04:02:13;8.52;;;2.10;;
49193;SDS011;35029;50.804;12.866;2022-12-24T04:04:39;9.25;;;2.80;;
49193;SDS011;35029;50.804;12.866;2022-12-24T04:07:05;8.70;;;2.17;;
49193;SDS011;35029;50.804;12.866;2022-12-24T04:09:32;13.73;;;2.55;;
49193;SDS011;35029;50.804;12.866;2022-12-24T04:11:58;7.35;;;2.00;;
49193;SDS011;35029;50.804;12.866;2022-12-24T04:14:23;9.13;;;2.28;;
49193;SDS011;35029;50.804;12.866;2022-12-24T04:16:49;9.80;;;2.00;;
49193;SDS011;35029;50.804;12.866;2022-12-24T04:19:16;7.20;;;1.92;;
49193;SDS011;35029;50.804;12.866;2022-12-24T04:21:41;7.75;;;2.47;;
49193;SDS011;35029;50.804;12.866;2022-12-24T04:24:07;9.93;;;2.42;;
49193;SDS011;35029;50.804;12.866;2022-12-24T04:26:33;8.15;;;2.35;;
49193;SDS011;35029;50.804;12.866;2022-12-24T04:28:58;5.03;;;1.58;;
49193;SDS011;35029;50.804;12.866;2022-12-24T04:31:25;12.15;;;2.63;;
49193;SDS011;35029;50.804;12.866;2022-12-24T04:33:51;8.13;;;1.98;;
49193;SDS011;35029;50.804;12.866;2022-12-24T04:36:18;12.88;;;2.47;;
49193;SDS011;35029;50.804;12.866;2022-12-24T04:38:45;9.55;;;2.28;;
49193;SDS011;35029;50.804;12.866;2022-12-24T04:41:31;9.02;;;1.48;;
49193;SDS011;35029;50.804;12.866;2022-12-24T04:43:57;5.60;;;1.80;;
49193;SDS011;35029;50.804;12.866;2022-12-24T04:46:24;11.50;;;2.33;;
49193;SDS011;35029;50.804;12.866;2022-12-24T04:48:51;6.15;;;2.05;;
49193;SDS011;35029;50.804;12.866;2022-12-24T04:51:18;6.85;;;1.80;;
49193;SDS011;35029;50.804;12.866;2022-12-24T04:53:44;7.80;;;1.90;;
49193;SDS011;35029;50.804;12.866;2022-12-24T04:56:12;8.65;;;2.53;;
49193;SDS011;35029;50.804;12.866;2022-12-24T04:58:39;9.10;;;2.10;;
49193;SDS011;35029;50.804;12.866;2022-12-24T05:01:05;10.45;;;2.15;;
49193;SDS011;35029;50.804;12.866;2022-12-24T05:03:37;10.63;;;2.72;;
49193;SDS011;35029;50.804;12.866;2022-12-24T05:06:07;11.95;;;2.00;;
49193;SDS011;35029;50.804;12.866;2022-12-24T05:08:34;10.00;;;2.55;;
49193;SDS011;35029;50.804;12.866;2022-12-24T05:11:00;7.75;;;1.98;;
49193;SDS011;35029;50.804;12.866;2022-12-24T05:13:27;11.98;;;2.75;;
49193;SDS011;35029;50.804;12.866;2022-12-24T05:15:53;9.90;;;1.92;;
49193;SDS011;35029;50.804;12.866;2022-12-24T05:18:19;6.95;;;1.63;;
49193;SDS011;35029;50.804;12.866;2022-12-24T05:20:46;8.40;;;2.55;;
49193;SDS011;35029;50.804;12.866;2022-12-24T05:23:16;8.68;;;2.63;;
49193;SDS011;35029;50.804;12.866;2022-12-24T05:26:03;10.23;;;2.33;;
49193;SDS011;35029;50.804;12.866;2022-12-24T05:28:46;5.57;;;1.60;;
49193;SDS011;35029;50.804;12.866;2022-12-24T05:31:12;15.25;;;2.38;;
49193;SDS011;35029;50.804;12.866;2022-12-24T05:33:38;8.43;;;2.20;;
49193;SDS011;35029;50.804;12.866;2022-12-24T05:36:04;10.70;;;2.25;;
49193;SDS011;35029;50.804;12.866;2022-12-24T05:38:30;9.52;;;2.33;;
49193;SDS011;35029;50.804;12.866;2022-12-24T05:40:55;9.10;;;1.90;;
49193;SDS011;35029;50.804;12.866;2022-12-24T05:43:21;10.43;;;2.60;;
49193;SDS011;35029;50.804;12.866;2022-12-24T05:45:47;13.00;;;2.78;;
49193;SDS011;35029;50.804;12.866;2022-12-24T05:48:12;16.20;;;3.03;;
49193;SDS011;35029;50.804;12.866;2022-12-24T05:50:39;5.90;;;2.20;;
49193;SDS011;35029;50.804;12.866;2022-12-24T05:53:05;13.50;;;2.65;;
49193;SDS011;35029;50.804;12.866;2022-12-24T05:55:31;7.93;;;1.85;;
49193;SDS011;35029;50.804;12.866;2022-12-24T05:57:58;4.90;;;1.70;;
49193;SDS011;35029;50.804;12.866;2022-12-24T06:00:24;9.52;;;2.60;;
49193;SDS011;35029;50.804;12.866;2022-12-24T06:02:50;8.95;;;2.53;;
49193;SDS011;35029;50.804;12.866;2022-12-24T06:05:15;12.05;;;2.13;;
49193;SDS011;35029;50.804;12.866;2022-12-24T06:07:41;10.85;;;2.20;;
49193;SDS011;35029;50.804;12.866;2022-12-24T06:10:07;8.68;;;2.35;;
49193;SDS011;35029;50.804;12.866;2022-12-24T06:12:33;12.98;;;2.38;;
49193;SDS011;35029;50.804;12.866;2022-12-24T06:14:59;10.45;;;1.90;;
49193;SDS011;35029;50.804;12.866;2022-12-24T06:17:25;8.57;;;1.90;;
49193;SDS011;35029;50.804;12.866;2022-12-24T06:19:51;9.07;;;2.10;;
49193;SDS011;35029;50.804;12.866;2022-12-24T06:22:16;10.90;;;2.13;;
49193;SDS011;35029;50.804;12.866;2022-12-24T06:24:42;9.30;;;1.60;;
49193;SDS011;35029;50.804;12.866;2022-12-24T06:27:07;7.43;;;1.95;;
49193;SDS011;35029;50.804;12.866;2022-12-24T06:29:33;10.68;;;1.80;;
49193;SDS011;35029;50.804;12.866;2022-12-24T06:31:58;11.40;;;2.35;;
49193;SDS011;35029;50.804;12.866;2022-12-24T06:34:25;8.88;;;1.88;;
49193;SDS011;35029;50.804;12.866;2022-12-24T06:36:50;6.68;;;1.83;;
49193;SDS011;35029;50.804;12.866;2022-12-24T06:39:16;11.25;;;2.67;;
49193;SDS011;35029;50.804;12.866;2022-12-24T06:41:42;5.78;;;1.95;;
49193;SDS011;35029;50.804;12.866;2022-12-24T06:44:08;12.57;;;2.13;;
49193;SDS011;35029;50.804;12.866;2022-12-24T06:46:34;14.00;;;2.10;;
49193;SDS011;35029;50.804;12.866;2022-12-24T06:49:00;9.95;;;2.08;;
49193;SDS011;35029;50.804;12.866;2022-12-24T06:51:26;11.07;;;2.17;;
49193;SDS011;35029;50.804;12.866;2022-12-24T06:53:51;9.45;;;2.60;;
49193;SDS011;35029;50.804;12.866;2022-12-24T06:56:17;22.52;;;2.70;;
49193;SDS011;35029;50.804;12.866;2022-12-24T06:58:44;9.90;;;2.97;;
49193;SDS011;35029;50.804;12.866;2022-12-24T07:01:12;8.82;;;2.72;;
49193;SDS011;35029;50.804;12.866;2022-12-24T07:03:39;10.98;;;2.28;;
49193;SDS011;35029;50.804;12.866;2022-12-24T07:06:04;10.80;;;3.03;;
49193;SDS011;35029;50.804;12.866;2022-12-24T07:08:32;11.80;;;2.80;;
49193;SDS011;35029;50.804;12.866;2022-12-24T07:11:00;12.10;;;2.67;;
49193;SDS011;35029;50.804;12.866;2022-12-24T07:13:27;11.73;;;2.17;;
49193;SDS011;35029;50.804;12.866;2022-12-24T07:15:57;12.98;;;2.75;;
49193;SDS011;35029;50.804;12.866;2022-12-24T07:18:27;10.60;;;2.20;;
49193;SDS011;35029;50.804;12.866;2022-12-24T07:20:54;8.40;;;2.50;;
49193;SDS011;35029;50.804;12.866;2022-12-24T07:23:19;20.60;;;3.22;;
49193;SDS011;35029;50.804;12.866;2022-12-24T07:25:45;12.45;;;2.72;;
49193;SDS011;35029;50.804;12.866;2022-12-24T07:28:12;7.53;;;2.20;;
49193;SDS011;35029;50.804;12.866;2022-12-24T07:30:37;8.63;;;2.42;;
49193;SDS011;35029;50.804;12.866;2022-12-24T07:33:04;11.02;;;3.47;;
49193;SDS011;35029;50.804;12.866;2022-12-24T07:35:29;12.35;;;2.50;;
49193;SDS011;35029;50.804;12.866;2022-12-24T07:37:55;10.70;;;2.70;;
49193;SDS011;35029;50.804;12.866;2022-12-24T07:40:21;13.05;;;3.28;;
49193;SDS011;35029;50.804;12.866;2022-12-24T07:42:47;14.02;;;2.90;;
49193;SDS011;35029;50.804;12.866;2022-12-24T07:45:12;15.77;;;3.45;;
49193;SDS011;35029;50.804;12.866;2022-12-24T07:47:38;11.48;;;2.80;;
49193;SDS011;35029;50.804;12.866;2022-12-24T07:50:04;16.23;;;3.17;;
49193;SDS011;35029;50.804;12.866;2022-12-24T07:52:33;15.20;;;2.97;;
49193;SDS011;35029;50.804;12.866;2022-12-24T07:54:59;14.10;;;3.03;;
49193;SDS011;35029;50.804;12.866;2022-12-24T07:57:24;8.75;;;2.45;;
49193;SDS011;35029;50.804;12.866;2022-12-24T07:59:50;13.63;;;2.58;;
49193;SDS011;35029;50.804;12.866;2022-12-24T08:02:16;11.93;;;2.42;;
49193;SDS011;35029;50.804;12.866;2022-12-24T08:04:43;12.23;;;2.63;;
49193;SDS011;35029;50.804;12.866;2022-12-24T08:07:09;11.23;;;2.60;;
49193;SDS011;35029;50.804;12.866;2022-12-24T08:09:35;9.95;;;2.60;;
49193;SDS011;35029;50.804;12.866;2022-12-24T08:12:01;8.45;;;2.50;;
49193;SDS011;35029;50.804;12.866;2022-12-24T08:14:28;16.02;;;2.90;;
49193;SDS011;35029;50.804;12.866;2022-12-24T08:16:54;10.23;;;2.58;;
49193;SDS011;35029;50.804;12.866;2022-12-24T08:19:20;16.23;;;3.33;;
49193;SDS011;35029;50.804;12.866;2022-12-24T08:21:46;12.05;;;2.70;;
49193;SDS011;35029;50.804;12.866;2022-12-24T08:24:12;9.57;;;2.17;;
49193;SDS011;35029;50.804;12.866;2022-12-24T08:26:38;13.45;;;3.10;;
49193;SDS011;35029;50.804;12.866;2022-12-24T08:29:04;8.63;;;2.10;;
49193;SDS011;35029;50.804;12.866;2022-12-24T08:31:30;9.57;;;3.00;;
49193;SDS011;35029;50.804;12.866;2022-12-24T08:34:01;10.30;;;2.38;;
49193;SDS011;35029;50.804;12.866;2022-12-24T08:36:28;10.30;;;2.60;;
49193;SDS011;35029;50.804;12.866;2022-12-24T08:38:53;10.95;;;3.08;;
49193;SDS011;35029;50.804;12.866;2022-12-24T08:41:19;11.30;;;2.42;;
49193;SDS011;35029;50.804;12.866;2022-12-24T08:43:45;17.02;;;3.00;;
49193;SDS011;35029;50.804;12.866;2022-12-24T08:46:12;11.43;;;3.05;;
49193;SDS011;35029;50.804;12.866;2022-12-24T08:48:38;12.60;;;2.63;;
49193;SDS011;35029;50.804;12.866;2022-12-24T08:51:05;10.13;;;2.70;;
49193;SDS011;35029;50.804;12.866;2022-12-24T08:53:32;9.63;;;2.30;;
49193;SDS011;35029;50.804;12.866;2022-12-24T08:56:02;12.93;;;3.20;;
49193;SDS011;35029;50.804;12.866;2022-12-24T08:58:29;12.50;;;2.85;;
49193;SDS011;35029;50.804;12.866;2022-12-24T09:00:55;13.27;;;2.67;;
49193;SDS011;35029;50.804;12.866;2022-12-24T09:03:20;11.20;;;2.75;;
49193;SDS011;35029;50.804;12.866;2022-12-24T09:05:46;11.82;;;3.20;;
49193;SDS011;35029;50.804;12.866;2022-12-24T09:08:13;11.65;;;2.85;;
49193;SDS011;35029;50.804;12.866;2022-12-24T09:10:38;8.98;;;2.83;;
49193;SDS011;35029;50.804;12.866;2022-12-24T09:13:05;11.77;;;3.00;;
49193;SDS011;35029;50.804;12.866;2022-12-24T09:15:32;12.48;;;2.88;;
49193;SDS011;35029;50.804;12.866;2022-12-24T09:17:59;9.43;;;2.35;;
49193;SDS011;35029;50.804;12.866;2022-12-24T09:20:25;13.10;;;3.10;;
49193;SDS011;35029;50.804;12.866;2022-12-24T09:22:51;14.20;;;3.78;;
49193;SDS011;35029;50.804;12.866;2022-12-24T09:25:16;11.18;;;3.13;;
49193;SDS011;35029;50.804;12.866;2022-12-24T09:27:42;11.13;;;2.45;;
49193;SDS011;35029;50.804;12.866;2022-12-24T09:30:08;14.18;;;2.58;;
49193;SDS011;35029;50.804;12.866;2022-12-24T09:32:36;11.02;;;2.40;;
49193;SDS011;35029;50.804;12.866;2022-12-24T09:35:03;10.55;;;2.55;;
49193;SDS011;35029;50.804;12.866;2022-12-24T09:37:29;10.00;;;1.92;;
49193;SDS011;35029;50.804;12.866;2022-12-24T09:39:54;11.77;;;2.53;;
49193;SDS011;35029;50.804;12.866;2022-12-24T09:45:12;11.77;;;2.67;;
49193;SDS011;35029;50.804;12.866;2022-12-24T09:47:51;13.85;;;2.47;;
49193;SDS011;35029;50.804;12.866;2022-12-24T09:53:18;10.48;;;2.42;;
49193;SDS011;35029;50.804;12.866;2022-12-24T09:55:53;12.57;;;2.72;;
49193;SDS011;35029;50.804;12.866;2022-12-24T09:58:29;6.47;;;1.70;;
49193;SDS011;35029;50.804;12.866;2022-12-24T10:01:01;11.48;;;2.60;;
49193;SDS011;35029;50.804;12.866;2022-12-24T10:03:27;9.38;;;1.90;;
49193;SDS011;35029;50.804;12.866;2022-12-24T10:17:29;7.55;;;1.60;;
49193;SDS011;35029;50.804;12.866;2022-12-24T10:20:12;6.07;;;1.92;;
49193;SDS011;35029;50.804;12.866;2022-12-24T10:22:55;8.85;;;2.60;;
49193;SDS011;35029;50.804;12.866;2022-12-24T10:28:37;11.75;;;3.03;;
49193;SDS011;35029;50.804;12.866;2022-12-24T10:31:17;10.15;;;2.35;;
49193;SDS011;35029;50.804;12.866;2022-12-24T10:33:48;9.57;;;2.47;;
49193;SDS011;35029;50.804;12.866;2022-12-24T10:36:21;7.63;;;2.60;;
49193;SDS011;35029;50.804;12.866;2022-12-24T10:38:51;10.95;;;2.65;;
49193;SDS011;35029;50.804;12.866;2022-12-24T10:41:17;10.10;;;2.03;;
49193;SDS011;35029;50.804;12.866;2022-12-24T10:43:44;12.50;;;3.20;;
49193;SDS011;35029;50.804;12.866;2022-12-24T10:46:20;13.70;;;2.97;;
49193;SDS011;35029;50.804;12.866;2022-12-24T10:48:57;12.90;;;2.70;;
49193;SDS011;35029;50.804;12.866;2022-12-24T10:51:44;12.88;;;2.88;;
49193;SDS011;35029;50.804;12.866;2022-12-24T10:54:18;12.40;;;3.03;;
49193;SDS011;35029;50.804;12.866;2022-12-24T10:59:24;11.85;;;2.78;;
49193;SDS011;35029;50.804;12.866;2022-12-24T11:01:50;6.30;;;2.13;;
49193;SDS011;35029;50.804;12.866;2022-12-24T11:04:17;6.50;;;2.03;;
49193;SDS011;35029;50.804;12.866;2022-12-24T11:06:50;12.43;;;2.70;;
49193;SDS011;35029;50.804;12.866;2022-12-24T11:12:02;8.75;;;2.15;;
49193;SDS011;35029;50.804;12.866;2022-12-24T11:14:32;9.45;;;2.65;;
49193;SDS011;35029;50.804;12.866;2022-12-24T11:17:00;6.73;;;2.20;;
49193;SDS011;35029;50.804;12.866;2022-12-24T11:21:58;9.52;;;2.10;;
49193;SDS011;35029;50.804;12.866;2022-12-24T11:24:28;6.43;;;2.08;;
49193;SDS011;35029;50.804;12.866;2022-12-24T11:27:20;4.90;;;1.90;;
49193;SDS011;35029;50.804;12.866;2022-12-24T11:30:12;5.82;;;1.70;;
49193;SDS011;35029;50.804;12.866;2022-12-24T11:32:39;7.85;;;1.75;;
49193;SDS011;35029;50.804;12.866;2022-12-24T11:35:19;4.60;;;2.00;;
49193;SDS011;35029;50.804;12.866;2022-12-24T11:40:24;10.15;;;2.47;;
49193;SDS011;35029;50.804;12.866;2022-12-24T11:42:57;5.50;;;2.13;;
49193;SDS011;35029;50.804;12.866;2022-12-24T11:45:25;5.80;;;1.80;;
49193;SDS011;35029;50.804;12.866;2022-12-24T11:47:52;9.32;;;2.67;;
49193;SDS011;35029;50.804;12.866;2022-12-24T11:52:48;6.53;;;1.92;;
49193;SDS011;35029;50.804;12.866;2022-12-24T11:55:27;6.28;;;1.83;;
49193;SDS011;35029;50.804;12.866;2022-12-24T12:01:08;6.53;;;2.00;;
49193;SDS011;35029;50.804;12.866;2022-12-24T12:04:02;9.30;;;1.92;;
49193;SDS011;35029;50.804;12.866;2022-12-24T12:06:34;9.48;;;2.22;;
49193;SDS011;35029;50.804;12.866;2022-12-24T12:09:15;4.03;;;1.80;;
49193;SDS011;35029;50.804;12.866;2022-12-24T12:11:48;12.70;;;1.80;;
49193;SDS011;35029;50.804;12.866;2022-12-24T12:14:19;8.13;;;1.92;;
49193;SDS011;35029;50.804;12.866;2022-12-24T12:16:56;8.02;;;2.00;;
49193;SDS011;35029;50.804;12.866;2022-12-24T12:19:31;4.60;;;1.50;;
49193;SDS011;35029;50.804;12.866;2022-12-24T12:22:14;6.55;;;1.92;;
49193;SDS011;35029;50.804;12.866;2022-12-24T12:24:49;7.00;;;1.88;;
49193;SDS011;35029;50.804;12.866;2022-12-24T12:27:24;5.35;;;1.45;;
49193;SDS011;35029;50.804;12.866;2022-12-24T12:29:56;5.00;;;1.92;;
49193;SDS011;35029;50.804;12.866;2022-12-24T12:33:03;5.32;;;1.50;;
49193;SDS011;35029;50.804;12.866;2022-12-24T12:35:24;9.23;;;2.22;;
49193;SDS011;35029;50.804;12.866;2022-12-24T12:38:03;5.03;;;1.80;;
49193;SDS011;35029;50.804;12.866;2022-12-24T12:40:48;5.35;;;1.95;;
49193;SDS011;35029;50.804;12.866;2022-12-24T12:46:04;8.73;;;2.10;;
49193;SDS011;35029;50.804;12.866;2022-12-24T12:51:08;4.50;;;1.50;;
49193;SDS011;35029;50.804;12.866;2022-12-24T12:56:30;5.40;;;1.40;;
49193;SDS011;35029;50.804;12.866;2022-12-24T13:01:33;6.45;;;1.77;;
49193;SDS011;35029;50.804;12.866;2022-12-24T13:15:42;3.83;;;1.63;;
49193;SDS011;35029;50.804;12.866;2022-12-24T13:18:46;6.25;;;1.60;;
49193;SDS011;35029;50.804;12.866;2022-12-24T13:21:24;3.97;;;1.92;;
49193;SDS011;35029;50.804;12.866;2022-12-24T13:24:05;4.07;;;1.73;;
49193;SDS011;35029;50.804;12.866;2022-12-24T13:26:39;5.28;;;1.63;;
49193;SDS011;35029;50.804;12.866;2022-12-24T13:37:22;7.10;;;2.78;;
49193;SDS011;35029;50.804;12.866;2022-12-24T13:42:47;7.57;;;2.03;;
49193;SDS011;35029;50.804;12.866;2022-12-24T13:47:52;8.13;;;2.28;;
49193;SDS011;35029;50.804;12.866;2022-12-24T13:50:21;5.50;;;1.80;;
49193;SDS011;35029;50.804;12.866;2022-12-24T13:55:55;8.25;;;2.38;;
49193;SDS011;35029;50.804;12.866;2022-12-24T13:58:24;5.03;;;2.20;;
49193;SDS011;35029;50.804;12.866;2022-12-24T14:00:51;6.78;;;1.70;;
49193;SDS011;35029;50.804;12.866;2022-12-24T14:03:20;6.70;;;2.35;;
49193;SDS011;35029;50.804;12.866;2022-12-24T14:06:01;5.97;;;1.65;;
49193;SDS011;35029;50.804;12.866;2022-12-24T14:08:32;5.32;;;1.77;;
49193;SDS011;35029;50.804;12.866;2022-12-24T14:16:04;8.75;;;2.17;;
49193;SDS011;35029;50.804;12.866;2022-12-24T14:18:38;4.18;;;1.63;;
49193;SDS011;35029;50.804;12.866;2022-12-24T14:21:07;4.97;;;1.80;;
49193;SDS011;35029;50.804;12.866;2022-12-24T14:23:56;8.05;;;2.05;;
49193;SDS011;35029;50.804;12.866;2022-12-24T14:26:27;5.28;;;1.73;;
49193;SDS011;35029;50.804;12.866;2022-12-24T14:28:58;10.50;;;2.30;;
49193;SDS011;35029;50.804;12.866;2022-12-24T14:31:27;7.15;;;1.70;;
49193;SDS011;35029;50.804;12.866;2022-12-24T14:34:06;4.30;;;1.70;;
49193;SDS011;35029;50.804;12.866;2022-12-24T14:36:33;3.13;;;1.40;;
49193;SDS011;35029;50.804;12.866;2022-12-24T14:39:00;5.20;;;2.13;;
49193;SDS011;35029;50.804;12.866;2022-12-24T14:41:31;9.13;;;2.05;;
49193;SDS011;35029;50.804;12.866;2022-12-24T14:44:22;7.40;;;2.07;;
49193;SDS011;35029;50.804;12.866;2022-12-24T14:55:42;4.70;;;1.77;;
49193;SDS011;35029;50.804;12.866;2022-12-24T15:01:00;12.20;;;2.45;;
49193;SDS011;35029;50.804;12.866;2022-12-24T15:03:42;4.88;;;2.30;;
49193;SDS011;35029;50.804;12.866;2022-12-24T15:06:08;9.55;;;2.10;;
49193;SDS011;35029;50.804;12.866;2022-12-24T15:08:38;5.90;;;1.80;;
49193;SDS011;35029;50.804;12.866;2022-12-24T15:11:12;5.55;;;1.95;;
49193;SDS011;35029;50.804;12.866;2022-12-24T15:13:42;6.63;;;2.22;;
49193;SDS011;35029;50.804;12.866;2022-12-24T15:16:12;6.57;;;2.55;;
49193;SDS011;35029;50.804;12.866;2022-12-24T15:18:51;8.18;;;2.45;;
49193;SDS011;35029;50.804;12.866;2022-12-24T15:21:32;9.15;;;2.53;;
49193;SDS011;35029;50.804;12.866;2022-12-24T15:24:22;7.07;;;2.47;;
49193;SDS011;35029;50.804;12.866;2022-12-24T15:26:52;9.95;;;2.97;;
49193;SDS011;35029;50.804;12.866;2022-12-24T15:29:23;12.35;;;2.67;;
49193;SDS011;35029;50.804;12.866;2022-12-24T15:31:52;8.63;;;2.60;;
49193;SDS011;35029;50.804;12.866;2022-12-24T15:37:10;7.65;;;2.97;;
49193;SDS011;35029;50.804;12.866;2022-12-24T15:40:24;6.00;;;2.33;;
49193;SDS011;35029;50.804;12.866;2022-12-24T15:42:49;7.28;;;2.47;;
49193;SDS011;35029;50.804;12.866;2022-12-24T15:47:50;7.57;;;3.40;;
49193;SDS011;35029;50.804;12.866;2022-12-24T15:52:54;8.10;;;2.45;;
49193;SDS011;35029;50.804;12.866;2022-12-24T15:58:52;8.80;;;2.80;;
49193;SDS011;35029;50.804;12.866;2022-12-24T16:01:43;9.88;;;3.40;;
49193;SDS011;35029;50.804;12.866;2022-12-24T16:04:12;7.15;;;2.65;;
49193;SDS011;35029;50.804;12.866;2022-12-24T16:09:43;9.75;;;2.97;;
49193;SDS011;35029;50.804;12.866;2022-12-24T16:12:11;13.75;;;2.85;;
49193;SDS011;35029;50.804;12.866;2022-12-24T16:14:47;7.40;;;2.55;;
49193;SDS011;35029;50.804;12.866;2022-12-24T16:17:31;11.38;;;3.05;;
49193;SDS011;35029;50.804;12.866;2022-12-24T16:20:03;8.13;;;2.72;;
49193;SDS011;35029;50.804;12.866;2022-12-24T16:22:32;5.80;;;2.58;;
49193;SDS011;35029;50.804;12.866;2022-12-24T16:27:51;7.30;;;2.35;;
49193;SDS011;35029;50.804;12.866;2022-12-24T16:30:18;8.13;;;2.10;;
49193;SDS011;35029;50.804;12.866;2022-12-24T16:32:44;9.45;;;2.50;;
49193;SDS011;35029;50.804;12.866;2022-12-24T16:35:26;14.80;;;3.08;;
49193;SDS011;35029;50.804;12.866;2022-12-24T16:37:57;8.38;;;2.30;;
49193;SDS011;35029;50.804;12.866;2022-12-24T16:40:23;9.18;;;2.58;;
49193;SDS011;35029;50.804;12.866;2022-12-24T16:42:49;7.05;;;2.45;;
49193;SDS011;35029;50.804;12.866;2022-12-24T16:45:33;8.45;;;2.45;;
49193;SDS011;35029;50.804;12.866;2022-12-24T16:48:01;6.70;;;2.47;;
49193;SDS011;35029;50.804;12.866;2022-12-24T16:50:29;5.55;;;2.35;;
49193;SDS011;35029;50.804;12.866;2022-12-24T16:52:56;10.57;;;2.30;;
49193;SDS011;35029;50.804;12.866;2022-12-24T16:55:23;4.53;;;2.05;;
49193;SDS011;35029;50.804;12.866;2022-12-24T16:57:49;7.88;;;2.45;;
49193;SDS011;35029;50.804;12.866;2022-12-24T17:00:17;5.30;;;1.95;;
49193;SDS011;35029;50.804;12.866;2022-12-24T17:02:45;5.78;;;2.72;;
49193;SDS011;35029;50.804;12.866;2022-12-24T17:05:12;6.40;;;2.28;;
49193;SDS011;35029;50.804;12.866;2022-12-24T17:07:39;8.93;;;2.45;;
49193;SDS011;35029;50.804;12.866;2022-12-24T17:10:08;4.72;;;2.08;;
49193;SDS011;35029;50.804;12.866;2022-12-24T17:12:39;10.45;;;2.95;;